Time;durP1;ratioP1;P1;durP2;ratioP2;P2;SDS_P1;SDS_P2;PMS_P1;PMS_P2;Temp;Humidity;BMP_temperature;BMP_pressure;BME280_temperature;BME280_humidity;BME280_pressure;Samples;Min_cycle;Max_cycle;Signal;HPM_P1;HPM_P2
2021/03/09 00:00:16;;;;;;;3.80;1.85;;;26.60;68.40;;;;;;5072493;28;20789;-57
2021/03/09 00:02:44;;;;;;;3.25;1.45;;;26.60;68.70;;;;;;5075364;28;20486;-54
2021/03/09 00:05:12;;;;;;;3.30;1.70;;;26.60;68.40;;;;;;5055123;28;20041;-55
2021/03/09 00:07:40;;;;;;;2.85;1.60;;;26.60;68.50;;;;;;5054753;28;20021;-56
2021/03/09 00:10:09;;;;;;;10.18;2.28;;;26.60;68.80;;;;;;5055282;28;20041;-61
2021/03/09 00:12:36;;;;;;;5.47;1.80;;;26.60;68.70;;;;;;5054779;28;20021;-58
2021/03/09 00:15:05;;;;;;;4.88;1.80;;;26.70;68.60;;;;;;5054829;28;20044;-63
2021/03/09 00:17:33;;;;;;;3.85;2.22;;;26.80;68.20;;;;;;5054903;28;20500;-61
2021/03/09 00:20:01;;;;;;;5.07;2.08;;;26.70;68.20;;;;;;5054881;28;20094;-63
2021/03/09 00:22:28;;;;;;;4.10;1.50;;;26.70;68.20;;;;;;5055400;28;20067;-53
2021/03/09 00:24:56;;;;;;;6.78;1.33;;;26.70;68.40;;;;;;5062587;28;20039;-60
2021/03/09 00:27:23;;;;;;;4.55;1.50;;;26.80;68.30;;;;;;5074457;28;20025;-59
2021/03/09 00:29:50;;;;;;;4.18;1.55;;;26.70;68.30;;;;;;5075064;28;20033;-64
2021/03/09 00:32:18;;;;;;;3.30;1.92;;;26.80;68.20;;;;;;5074975;28;20021;-56
2021/03/09 00:34:45;;;;;;;4.28;1.80;;;26.80;68.30;;;;;;5074605;28;20111;-62
2021/03/09 00:37:12;;;;;;;5.47;1.75;;;26.80;68.60;;;;;;5075111;28;20439;-63
2021/03/09 00:39:40;;;;;;;4.70;1.63;;;26.80;68.80;;;;;;5073381;28;20028;-60
2021/03/09 00:42:08;;;;;;;4.88;2.63;;;27.00;68.00;;;;;;5074813;28;20032;-57
2021/03/09 00:44:35;;;;;;;4.20;1.80;;;27.00;67.80;;;;;;5074578;28;20054;-55
2021/03/09 00:47:03;;;;;;;2.75;1.92;;;27.10;67.80;;;;;;5074951;28;20027;-58
2021/03/09 00:49:30;;;;;;;3.30;1.50;;;27.10;67.90;;;;;;5074198;28;20033;-58
2021/03/09 00:51:58;;;;;;;3.58;2.22;;;27.10;67.70;;;;;;5072662;28;20056;-61
2021/03/09 00:54:25;;;;;;;3.25;1.77;;;27.10;67.90;;;;;;5074108;28;20611;-59
2021/03/09 00:56:52;;;;;;;3.03;1.70;;;27.00;68.00;;;;;;5074019;28;20446;-55
2021/03/09 00:59:20;;;;;;;3.60;1.70;;;27.10;68.60;;;;;;5073730;28;20032;-62
2021/03/09 01:01:47;;;;;;;3.85;1.70;;;27.20;68.20;;;;;;5074581;28;20431;-58
2021/03/09 01:04:14;;;;;;;4.40;2.15;;;27.20;68.80;;;;;;5074105;28;20498;-55
2021/03/09 01:06:42;;;;;;;4.25;1.67;;;27.30;67.90;;;;;;5073362;28;20047;-53
2021/03/09 01:09:09;;;;;;;3.20;1.60;;;27.30;67.80;;;;;;5094426;28;20059;-62
2021/03/09 01:11:37;;;;;;;3.63;2.05;;;27.30;68.30;;;;;;5093784;28;20027;-61
2021/03/09 01:14:04;;;;;;;4.50;1.88;;;27.30;68.10;;;;;;5094427;28;20036;-62
2021/03/09 01:16:31;;;;;;;4.35;1.65;;;27.30;68.50;;;;;;5094134;28;20028;-56
2021/03/09 01:18:58;;;;;;;4.68;1.80;;;27.40;67.70;;;;;;5093978;28;20036;-55
2021/03/09 01:21:26;;;;;;;3.63;1.77;;;27.40;68.10;;;;;;5093930;28;20039;-55
2021/03/09 01:23:53;;;;;;;2.45;1.23;;;27.40;67.80;;;;;;5091961;28;20466;-54
2021/03/09 01:26:21;;;;;;;6.32;2.45;;;27.40;67.70;;;;;;5054844;28;20029;-62
2021/03/09 01:28:48;;;;;;;4.90;2.08;;;27.40;68.10;;;;;;5053708;28;20045;-58
2021/03/09 01:31:15;;;;;;;3.10;2.05;;;27.40;67.80;;;;;;5053364;28;20131;-53
2021/03/09 01:33:43;;;;;;;5.85;2.10;;;27.40;67.80;;;;;;5053351;28;20057;-59
2021/03/09 01:36:10;;;;;;;5.63;2.17;;;27.40;68.30;;;;;;5053390;28;20044;-57
2021/03/09 01:38:38;;;;;;;6.97;2.78;;;27.40;68.60;;;;;;5053228;28;20051;-51
2021/03/09 01:41:05;;;;;;;4.72;1.83;;;27.40;68.30;;;;;;5053476;28;20056;-52
2021/03/09 01:43:33;;;;;;;2.88;1.40;;;27.40;69.00;;;;;;5052755;28;20029;-49
2021/03/09 01:46:01;;;;;;;3.50;1.65;;;27.40;68.50;;;;;;5053376;28;20059;-57
2021/03/09 01:48:35;;;;;;;5.13;2.03;;;27.40;69.00;;;;;;5052997;28;20021;-58
2021/03/09 01:51:03;;;;;;;8.20;2.08;;;27.40;69.10;;;;;;5053034;28;20483;-58
2021/03/09 01:53:31;;;;;;;5.05;2.15;;;27.50;68.50;;;;;;5052635;28;20036;-66
2021/03/09 01:55:58;;;;;;;5.07;1.95;;;27.40;68.50;;;;;;5071142;28;20024;-55
2021/03/09 01:58:29;;;;;;;5.20;2.00;;;27.50;68.30;;;;;;5073537;28;20037;-53
2021/03/09 02:00:56;;;;;;;3.92;1.95;;;27.50;68.70;;;;;;5073117;28;20027;-53
2021/03/09 02:03:24;;;;;;;5.97;2.40;;;27.50;68.90;;;;;;5073498;28;20183;-53
2021/03/09 02:05:51;;;;;;;3.70;1.80;;;27.50;68.90;;;;;;5073016;28;20045;-53
2021/03/09 02:08:19;;;;;;;5.40;2.15;;;27.50;68.90;;;;;;5069106;28;20021;-65
2021/03/09 02:10:46;;;;;;;5.03;2.58;;;27.50;68.90;;;;;;5070572;28;20051;-58
2021/03/09 02:13:36;;;;;;;4.00;1.90;;;27.50;68.90;;;;;;5070166;28;20017;-60
2021/03/09 02:16:44;;;;;;;6.40;2.17;;;27.50;69.20;;;;;;5069819;28;20479;-56
2021/03/09 02:19:44;;;;;;;5.15;2.10;;;27.40;69.20;;;;;;5056830;28;20033;-59
2021/03/09 02:22:47;;;;;;;4.50;2.22;;;27.40;69.60;;;;;;5068252;28;20498;-56
2021/03/09 02:25:51;;;;;;;3.22;1.98;;;27.40;69.70;;;;;;5068577;28;20189;-58
2021/03/09 02:28:37;;;;;;;6.32;2.30;;;27.30;70.10;;;;;;5066032;28;20028;-61
2021/03/09 02:31:06;;;;;;;5.35;2.33;;;27.50;70.00;;;;;;5069127;28;20059;-52
2021/03/09 02:33:40;;;;;;;5.18;2.50;;;27.50;69.80;;;;;;5066269;28;20028;-58
2021/03/09 02:36:15;;;;;;;5.50;2.50;;;27.40;69.70;;;;;;5068872;28;20121;-55
2021/03/09 02:38:51;;;;;;;3.03;1.90;;;27.40;69.60;;;;;;5063531;28;20017;-56
2021/03/09 02:41:21;;;;;;;5.32;2.53;;;27.40;69.80;;;;;;5069830;28;20021;-59
2021/03/09 02:43:52;;;;;;;5.45;2.22;;;27.50;69.70;;;;;;5069042;28;20390;-54
2021/03/09 02:46:22;;;;;;;3.40;2.30;;;27.60;69.60;;;;;;5069750;28;20025;-58
2021/03/09 02:48:51;;;;;;;8.55;2.90;;;27.50;69.90;;;;;;5066791;28;20029;-63
2021/03/09 02:51:24;;;;;;;4.97;2.72;;;27.60;69.40;;;;;;5066738;28;20057;-61
2021/03/09 02:53:55;;;;;;;5.70;2.47;;;27.60;69.60;;;;;;5067877;28;20021;-59
2021/03/09 02:56:24;;;;;;;6.65;2.83;;;27.70;69.30;;;;;;5070097;28;20067;-60
2021/03/09 02:58:59;;;;;;;9.18;3.08;;;27.80;69.20;;;;;;5065549;28;20059;-57
2021/03/09 03:01:27;;;;;;;7.13;2.58;;;27.70;69.00;;;;;;5067316;28;20021;-58
2021/03/09 03:03:56;;;;;;;5.90;2.60;;;27.80;68.30;;;;;;5069896;28;20028;-51
2021/03/09 03:06:25;;;;;;;7.28;2.85;;;27.70;69.30;;;;;;5068813;28;20056;-54
2021/03/09 03:08:55;;;;;;;6.18;3.05;;;27.70;69.20;;;;;;5065554;28;20048;-63
2021/03/09 03:11:24;;;;;;;10.70;2.72;;;27.70;69.40;;;;;;5069849;28;20067;-58
2021/03/09 03:13:54;;;;;;;6.10;2.50;;;27.70;69.40;;;;;;5071448;28;20055;-59
2021/03/09 03:16:23;;;;;;;5.28;2.63;;;27.80;69.90;;;;;;5072047;28;20020;-57
2021/03/09 03:18:51;;;;;;;5.63;2.67;;;27.80;69.50;;;;;;5071896;28;20021;-57
2021/03/09 03:21:19;;;;;;;5.22;2.78;;;27.80;69.40;;;;;;5071337;28;20496;-60
2021/03/09 03:23:46;;;;;;;7.28;2.97;;;27.80;69.60;;;;;;5071707;28;20017;-62
2021/03/09 03:26:15;;;;;;;7.55;2.67;;;27.80;69.60;;;;;;5071692;28;20021;-59
2021/03/09 03:28:47;;;;;;;10.00;2.60;;;27.70;68.90;;;;;;5071334;28;20036;-60
2021/03/09 03:31:14;;;;;;;8.60;3.20;;;27.80;69.40;;;;;;5071161;28;20432;-57
2021/03/09 03:33:42;;;;;;;5.32;2.40;;;27.80;69.90;;;;;;5071437;28;20025;-64
2021/03/09 03:36:09;;;;;;;7.05;2.55;;;27.80;69.70;;;;;;5070757;28;20032;-59
2021/03/09 03:38:42;;;;;;;9.55;3.70;;;27.80;69.40;;;;;;5070655;28;20126;-64
2021/03/09 03:41:11;;;;;;;4.25;2.45;;;27.80;69.50;;;;;;5069781;28;20394;-59
2021/03/09 03:43:39;;;;;;;6.55;3.33;;;27.90;69.90;;;;;;5071579;28;20358;-58
2021/03/09 03:46:07;;;;;;;6.70;2.72;;;27.90;69.40;;;;;;5071006;28;20073;-59
2021/03/09 03:48:38;;;;;;;8.57;3.65;;;27.90;69.30;;;;;;5070871;28;20036;-61
2021/03/09 03:51:13;;;;;;;6.57;3.03;;;28.00;69.50;;;;;;5070809;28;20036;-64
2021/03/09 03:54:12;;;;;;;9.07;3.10;;;27.90;69.60;;;;;;5071445;28;20079;-61
2021/03/09 03:56:55;;;;;;;8.80;3.25;;;27.90;69.60;;;;;;5070729;28;20039;-63
2021/03/09 03:59:53;;;;;;;9.05;3.00;;;27.90;69.40;;;;;;5071303;28;20471;-62
2021/03/09 04:02:21;;;;;;;6.55;3.10;;;27.90;68.80;;;;;;5062838;28;20501;-59
2021/03/09 04:04:49;;;;;;;6.38;3.00;;;27.90;69.40;;;;;;5071020;28;20139;-66
2021/03/09 04:07:24;;;;;;;7.40;2.88;;;27.90;69.50;;;;;;5071353;28;20470;-63
2021/03/09 04:09:55;;;;;;;7.97;3.13;;;28.00;69.30;;;;;;5071241;28;20472;-61
2021/03/09 04:12:29;;;;;;;7.38;2.65;;;27.90;69.40;;;;;;5071276;28;20383;-64
2021/03/09 04:15:00;;;;;;;8.02;3.15;;;28.00;69.50;;;;;;5071401;28;20476;-62
2021/03/09 04:17:30;;;;;;;6.28;2.97;;;28.00;69.60;;;;;;5071467;28;20028;-61
2021/03/09 04:19:58;;;;;;;11.00;3.22;;;27.90;69.60;;;;;;5071046;28;20028;-61
2021/03/09 04:22:26;;;;;;;9.02;4.20;;;28.00;69.50;;;;;;5050400;28;20112;-54
2021/03/09 04:24:56;;;;;;;16.00;6.80;;;28.00;69.40;;;;;;5052357;28;20033;-62
2021/03/09 04:27:23;;;;;;;10.85;5.43;;;28.00;69.50;;;;;;5051904;28;20536;-62
2021/03/09 04:29:58;;;;;;;11.35;8.63;;;28.00;69.50;;;;;;5050981;28;20033;-63
2021/03/09 04:32:27;;;;;;;12.25;8.65;;;27.90;69.70;;;;;;5050834;28;20140;-66
2021/03/09 04:34:55;;;;;;;18.77;15.55;;;27.90;69.60;;;;;;5051058;28;20029;-58
2021/03/09 04:37:24;;;;;;;13.80;9.35;;;27.90;70.00;;;;;;5051037;28;20150;-52
2021/03/09 04:39:52;;;;;;;13.75;11.68;;;27.80;70.20;;;;;;5051029;28;20041;-53
2021/03/09 04:42:19;;;;;;;16.17;14.50;;;27.80;70.10;;;;;;5049582;28;20021;-62
2021/03/09 04:44:49;;;;;;;14.60;9.10;;;27.80;70.30;;;;;;5050919;28;20021;-50
2021/03/09 04:47:18;;;;;;;16.65;6.35;;;27.70;70.20;;;;;;5053555;28;20048;-60
2021/03/09 04:49:45;;;;;;;13.63;7.60;;;27.80;70.40;;;;;;5054506;28;20123;-57
2021/03/09 04:52:13;;;;;;;9.65;6.10;;;27.70;70.60;;;;;;5072642;28;20048;-60
2021/03/09 04:54:41;;;;;;;12.15;6.93;;;27.70;70.90;;;;;;5074304;28;20504;-60
2021/03/09 04:57:08;;;;;;;9.98;6.18;;;27.70;70.80;;;;;;5074640;28;20017;-65
2021/03/09 04:59:35;;;;;;;15.32;6.13;;;27.60;70.60;;;;;;5074421;28;20732;-58
2021/03/09 05:02:03;;;;;;;9.43;5.47;;;27.60;70.60;;;;;;5074028;28;20016;-66
2021/03/09 05:04:31;;;;;;;11.65;5.70;;;27.60;71.00;;;;;;5074588;28;20044;-57
2021/03/09 05:06:58;;;;;;;11.82;6.53;;;27.50;71.30;;;;;;5073986;28;20047;-58
2021/03/09 05:09:25;;;;;;;11.80;6.82;;;27.50;71.20;;;;;;5074299;28;20032;-61
2021/03/09 05:11:53;;;;;;;9.82;6.43;;;27.40;71.50;;;;;;5074694;28;20100;-63
2021/03/09 05:14:20;;;;;;;12.25;6.38;;;27.40;71.50;;;;;;5073795;28;20025;-57
2021/03/09 05:16:47;;;;;;;10.27;6.50;;;27.40;71.50;;;;;;5074166;28;20024;-61
2021/03/09 05:19:15;;;;;;;15.85;7.28;;;27.40;72.00;;;;;;5072493;28;20024;-63
2021/03/09 05:21:42;;;;;;;13.23;5.53;;;27.30;72.40;;;;;;5074301;28;20036;-61
2021/03/09 05:24:10;;;;;;;9.80;5.93;;;27.30;72.90;;;;;;5074141;28;20024;-61
2021/03/09 05:26:37;;;;;;;15.05;5.72;;;27.20;72.90;;;;;;5073680;28;20028;-56
2021/03/09 05:29:04;;;;;;;10.27;6.43;;;27.20;72.60;;;;;;5073593;28;20056;-60
2021/03/09 05:31:32;;;;;;;14.57;8.40;;;27.10;72.90;;;;;;5070291;28;20032;-57
2021/03/09 05:33:59;;;;;;;18.45;8.68;;;27.10;73.10;;;;;;5073464;28;20024;-59
2021/03/09 05:36:29;;;;;;;14.25;8.73;;;27.10;73.10;;;;;;5072247;28;20467;-57
2021/03/09 05:38:56;;;;;;;12.63;7.43;;;27.00;73.50;;;;;;5073479;28;20193;-57
2021/03/09 05:41:24;;;;;;;14.40;7.80;;;26.90;73.90;;;;;;5073674;28;20488;-54
2021/03/09 05:43:53;;;;;;;11.45;7.45;;;26.80;74.30;;;;;;5073211;28;20120;-59
2021/03/09 05:46:20;;;;;;;12.05;6.53;;;26.80;74.60;;;;;;5073202;28;20044;-56
2021/03/09 05:48:47;;;;;;;10.55;7.35;;;26.80;74.70;;;;;;5073119;28;20035;-51
2021/03/09 05:51:15;;;;;;;12.57;6.35;;;26.70;74.80;;;;;;5072923;28;20110;-59
2021/03/09 05:53:42;;;;;;;11.02;6.45;;;26.70;74.60;;;;;;5073195;28;20379;-52
2021/03/09 05:56:10;;;;;;;14.90;6.65;;;26.70;75.40;;;;;;5073476;28;20025;-51
2021/03/09 05:58:37;;;;;;;14.65;6.15;;;26.60;75.60;;;;;;5071486;28;20021;-63
2021/03/09 06:01:05;;;;;;;13.00;6.95;;;26.60;75.50;;;;;;5072841;28;20025;-60
2021/03/09 06:03:32;;;;;;;16.48;6.28;;;26.60;75.80;;;;;;5072829;28;20028;-67
2021/03/09 06:05:59;;;;;;;11.45;5.70;;;26.50;76.00;;;;;;5072574;28;20390;-58
2021/03/09 06:08:30;;;;;;;13.88;5.70;;;26.50;75.80;;;;;;5070596;28;20032;-66
2021/03/09 06:11:33;;;;;;;14.60;6.10;;;26.50;75.40;;;;;;5068044;28;20040;-62
2021/03/09 06:13:59;;;;;;;;;;;26.50;76.00;;;;;;5010987;28;20276;-52
2021/03/09 06:16:34;;;;;;;47.08;32.67;;;26.50;76.20;;;;;;5053552;28;19962;-57
2021/03/09 06:19:01;;;;;;;22.92;10.98;;;26.50;75.90;;;;;;5067165;28;20255;-63
2021/03/09 06:21:29;;;;;;;16.83;9.23;;;26.50;74.60;;;;;;5070978;28;20524;-61
2021/03/09 06:23:58;;;;;;;11.45;6.50;;;26.50;74.10;;;;;;5069178;28;20048;-59
2021/03/09 06:26:41;;;;;;;11.32;5.32;;;26.50;74.20;;;;;;5069486;28;20056;-65
2021/03/09 06:29:15;;;;;;;15.30;8.32;;;26.50;74.70;;;;;;5070355;28;20097;-61
2021/03/09 06:32:04;;;;;;;11.77;6.70;;;26.50;75.40;;;;;;5069457;28;20021;-63
2021/03/09 06:34:35;;;;;;;10.77;6.18;;;26.50;74.90;;;;;;5070426;28;20138;-53
2021/03/09 06:37:15;;;;;;;15.27;11.02;;;26.50;74.80;;;;;;5068791;28;20056;-58
2021/03/09 06:39:50;;;;;;;15.02;10.18;;;26.50;74.70;;;;;;5067326;28;20443;-59
2021/03/09 06:42:20;;;;;;;14.00;5.90;;;26.50;74.40;;;;;;5065462;28;20133;-60
2021/03/09 06:44:52;;;;;;;17.00;7.57;;;26.50;73.10;;;;;;5070080;28;20024;-66
2021/03/09 06:47:35;;;;;;;19.92;8.00;;;26.50;73.50;;;;;;5069637;28;20161;-66
2021/03/09 06:50:05;;;;;;;12.23;6.63;;;26.50;73.00;;;;;;5069388;28;20036;-56
2021/03/09 06:52:32;;;;;;;20.00;14.40;;;26.50;74.10;;;;;;5066163;28;20021;-68
2021/03/09 06:55:00;;;;;;;16.42;10.68;;;26.40;74.00;;;;;;5069535;28;20390;-65
2021/03/09 06:57:28;;;;;;;14.02;8.85;;;26.40;74.40;;;;;;5068697;28;20090;-59
2021/03/09 06:59:56;;;;;;;13.93;5.88;;;26.40;75.00;;;;;;5069886;28;20039;-60
2021/03/09 07:02:28;;;;;;;11.80;6.00;;;26.40;74.50;;;;;;5066247;28;20033;-60
2021/03/09 07:05:02;;;;;;;21.73;5.65;;;26.40;74.40;;;;;;5068412;28;20494;-59
2021/03/09 07:07:35;;;;;;;9.88;5.15;;;26.40;74.80;;;;;;5069383;28;20131;-58
2021/03/09 07:10:06;;;;;;;23.92;15.48;;;26.40;74.40;;;;;;5069848;28;20063;-59
2021/03/09 07:12:36;;;;;;;17.38;5.18;;;26.30;74.20;;;;;;5065437;28;20052;-59
2021/03/09 07:15:06;;;;;;;17.67;4.40;;;26.40;74.40;;;;;;5069206;28;20036;-57
2021/03/09 07:17:36;;;;;;;13.13;3.70;;;26.30;74.40;;;;;;5068961;28;20021;-61
2021/03/09 07:20:06;;;;;;;12.73;3.08;;;26.30;74.10;;;;;;5069200;28;20460;-57
2021/03/09 07:22:35;;;;;;;16.58;4.07;;;26.30;74.50;;;;;;5066616;28;20036;-59
2021/03/09 07:25:16;;;;;;;14.70;3.90;;;26.30;75.40;;;;;;5070462;28;20029;-61
2021/03/09 07:28:01;;;;;;;12.52;4.68;;;26.20;74.80;;;;;;5069593;28;20052;-59
2021/03/09 07:30:32;;;;;;;17.38;3.42;;;26.20;74.90;;;;;;5069542;28;20090;-57
2021/03/09 07:33:00;;;;;;;12.13;3.80;;;26.20;75.20;;;;;;5066875;28;20029;-64
2021/03/09 07:35:29;;;;;;;13.00;4.20;;;26.20;75.10;;;;;;5069389;28;20322;-61
2021/03/09 07:38:03;;;;;;;15.63;3.83;;;26.10;75.10;;;;;;5069473;28;20013;-57
2021/03/09 07:40:33;;;;;;;10.52;3.40;;;26.10;75.20;;;;;;5069800;28;20119;-68
2021/03/09 07:43:01;;;;;;;14.63;3.50;;;26.10;75.10;;;;;;5067140;28;20055;-64
2021/03/09 07:45:36;;;;;;;7.38;2.83;;;26.10;74.90;;;;;;5070221;28;20021;-58
2021/03/09 07:48:18;;;;;;;10.02;3.15;;;26.10;74.50;;;;;;5069290;28;20036;-55
2021/03/09 07:50:49;;;;;;;8.32;2.78;;;26.10;74.80;;;;;;5067410;28;20382;-59
2021/03/09 07:53:19;;;;;;;8.73;2.47;;;26.10;74.70;;;;;;5066077;28;20028;-57
2021/03/09 07:56:13;;;;;;;12.63;3.22;;;26.00;74.80;;;;;;5069344;28;20100;-63
2021/03/09 07:58:41;;;;;;;10.80;2.70;;;26.00;74.90;;;;;;5068309;28;20474;-58
2021/03/09 08:01:11;;;;;;;8.85;2.97;;;26.00;75.50;;;;;;5070097;28;20040;-61
2021/03/09 08:03:42;;;;;;;14.88;4.25;;;26.00;75.60;;;;;;5066164;28;20034;-52
2021/03/09 08:06:13;;;;;;;;;;;26.00;75.90;;;;;;5069826;28;20483;-54
2021/03/09 08:08:56;;;;;;;12.00;3.05;;;26.00;75.90;;;;;;5069908;28;19943;-54
2021/03/09 08:11:27;;;;;;;8.02;2.95;;;25.90;75.80;;;;;;5069140;28;20032;-52
2021/03/09 08:14:09;;;;;;;13.48;3.00;;;26.00;75.90;;;;;;5066575;28;20025;-55
2021/03/09 08:16:43;;;;;;;12.38;2.70;;;25.90;75.90;;;;;;5066644;28;20522;-58
2021/03/09 08:19:26;;;;;;;14.85;3.67;;;25.90;75.90;;;;;;5067082;28;20028;-55
2021/03/09 08:22:02;;;;;;;8.52;2.63;;;25.90;76.10;;;;;;5071643;28;20035;-58
2021/03/09 08:24:50;;;;;;;6.15;2.45;;;25.90;76.00;;;;;;5071839;28;20100;-53
2021/03/09 08:27:31;;;;;;;12.30;3.38;;;25.90;75.80;;;;;;5069397;28;20083;-60
2021/03/09 08:30:26;;;;;;;11.45;3.53;;;25.90;76.10;;;;;;5069231;28;20079;-54
2021/03/09 08:32:54;;;;;;;11.57;3.28;;;25.80;76.60;;;;;;5061102;28;20127;-66
2021/03/09 08:35:47;;;;;;;10.05;2.70;;;25.80;76.20;;;;;;5072950;28;20051;-65
2021/03/09 08:38:37;;;;;;;9.50;3.17;;;25.80;76.20;;;;;;5070687;28;20021;-60
2021/03/09 08:41:09;;;;;;;10.20;3.65;;;25.80;76.20;;;;;;5068753;28;20059;-62
2021/03/09 08:43:38;;;;;;;8.55;2.83;;;25.70;76.30;;;;;;5072386;28;20019;-62
2021/03/09 08:46:06;;;;;;;6.47;2.47;;;25.70;76.50;;;;;;5075478;28;20029;-67
2021/03/09 08:48:53;;;;;;;10.45;3.03;;;25.70;76.30;;;;;;5075739;28;20029;-69
2021/03/09 08:51:50;;;;;;;10.73;3.13;;;25.70;76.00;;;;;;5075832;28;20509;-66
2021/03/09 08:54:27;;;;;;;9.30;3.53;;;25.70;75.90;;;;;;5061732;28;20534;-64
2021/03/09 08:56:56;;;;;;;8.48;3.58;;;25.70;76.00;;;;;;5075342;28;20024;-58
2021/03/09 08:59:29;;;;;;;9.50;3.20;;;25.70;75.80;;;;;;5074941;28;20024;-68
2021/03/09 09:02:07;;;;;;;11.05;3.33;;;25.60;76.20;;;;;;5074791;28;20390;-63
2021/03/09 09:04:35;;;;;;;9.63;3.00;;;25.60;76.00;;;;;;5072152;28;20040;-60
2021/03/09 09:07:21;;;;;;;9.85;3.28;;;25.70;77.90;;;;;;5060853;28;20117;-58
2021/03/09 09:09:49;;;;;;;9.75;3.35;;;25.70;78.90;;;;;;5071943;28;20040;-68
2021/03/09 09:12:22;;;;;;;14.43;4.88;;;25.70;79.10;;;;;;5071882;28;20033;-63
2021/03/09 09:15:13;;;;;;;13.43;3.45;;;25.70;78.80;;;;;;5069553;28;20170;-58
2021/03/09 09:17:52;;;;;;;10.65;3.80;;;25.70;78.00;;;;;;5066924;28;20035;-62
2021/03/09 09:20:47;;;;;;;12.40;3.80;;;25.70;77.60;;;;;;5068725;28;20113;-55
2021/03/09 09:23:23;;;;;;;13.27;5.38;;;25.70;77.80;;;;;;5071801;28;20095;-58
2021/03/09 09:25:58;;;;;;;22.25;4.97;;;25.70;78.20;;;;;;5065690;28;20035;-54
2021/03/09 09:28:30;;;;;;;17.67;5.00;;;25.70;77.90;;;;;;5066747;28;20059;-60
2021/03/09 09:31:00;;;;;;;16.02;4.63;;;25.70;78.20;;;;;;5072145;28;20036;-63
2021/03/09 09:33:32;;;;;;;13.52;5.10;;;25.70;78.00;;;;;;5065956;28;20452;-61
2021/03/09 09:36:00;;;;;;;16.92;4.82;;;25.70;78.10;;;;;;5060961;28;20751;-53
2021/03/09 09:38:27;;;;;;;17.30;4.40;;;25.70;78.30;;;;;;5070469;28;20028;-58
2021/03/09 09:41:00;;;;;;;17.38;5.03;;;25.70;78.00;;;;;;5072414;28;20494;-55
2021/03/09 09:43:35;;;;;;;14.90;5.20;;;25.70;78.10;;;;;;5068858;28;20466;-54
2021/03/09 09:46:05;;;;;;;16.48;5.88;;;25.70;78.10;;;;;;5063554;28;20118;-58
2021/03/09 09:48:38;;;;;;;13.20;4.72;;;25.70;78.20;;;;;;5071103;28;20021;-60
2021/03/09 09:51:26;;;;;;;11.68;4.38;;;25.70;78.00;;;;;;5071600;28;20475;-58
2021/03/09 09:53:54;;;;;;;14.23;4.78;;;25.70;77.70;;;;;;5070962;28;20046;-59
2021/03/09 09:56:23;;;;;;;14.88;4.30;;;25.70;77.90;;;;;;5065795;28;20041;-54
2021/03/09 09:58:58;;;;;;;11.45;3.92;;;25.70;77.50;;;;;;5071545;28;20038;-54
2021/03/09 10:01:37;;;;;;;12.10;4.22;;;25.70;77.50;;;;;;5071554;28;20028;-53
2021/03/09 10:04:09;;;;;;;12.30;4.38;;;25.70;77.80;;;;;;5063580;28;20052;-56
2021/03/09 10:06:49;;;;;;;12.68;4.38;;;25.70;77.90;;;;;;5065252;28;20029;-68
2021/03/09 10:09:20;;;;;;;12.20;3.80;;;25.70;77.90;;;;;;5071578;28;20048;-54
2021/03/09 10:11:48;;;;;;;16.15;4.68;;;25.70;77.70;;;;;;5072002;28;20082;-65
2021/03/09 10:14:17;;;;;;;14.63;4.53;;;25.70;77.90;;;;;;5071597;28;20037;-58
2021/03/09 10:16:45;;;;;;;12.25;4.45;;;25.60;77.50;;;;;;5064798;28;20495;-55
2021/03/09 10:19:18;;;;;;;15.30;4.07;;;25.60;77.20;;;;;;5066103;28;20537;-59
2021/03/09 10:22:18;;;;;;;10.25;3.60;;;25.60;77.20;;;;;;5069254;28;20032;-59
2021/03/09 10:24:46;;;;;;;14.60;4.20;;;25.60;77.50;;;;;;5067594;28;20021;-54
2021/03/09 10:27:19;;;;;;;14.50;4.88;;;25.50;77.50;;;;;;5065173;28;20025;-58
2021/03/09 10:29:48;;;;;;;17.00;4.47;;;25.50;77.30;;;;;;5071222;28;20399;-64
2021/03/09 10:32:17;;;;;;;9.95;3.85;;;25.50;77.20;;;;;;5071508;28;20020;-57
2021/03/09 10:34:52;;;;;;;13.00;4.35;;;25.50;77.30;;;;;;5068264;28;20028;-62
2021/03/09 10:37:43;;;;;;;11.65;3.88;;;25.50;77.30;;;;;;5065398;28;20118;-56
2021/03/09 10:40:15;;;;;;;11.60;3.70;;;25.50;77.40;;;;;;5070227;28;20106;-67
2021/03/09 10:42:51;;;;;;;10.93;4.13;;;25.50;77.20;;;;;;5071359;28;20166;-60
2021/03/09 10:45:30;;;;;;;10.95;3.80;;;25.50;77.20;;;;;;5067470;28;20118;-51
2021/03/09 10:48:00;;;;;;;15.27;3.80;;;25.50;77.20;;;;;;5070460;28;20033;-61
2021/03/09 10:53:48;;;;;;;11.90;3.55;;;25.50;76.60;;;;;;4972825;28;20068;-64
2021/03/09 10:56:57;;;;;;;;;;;;;;;;;;;;;
2021/03/09 10:59:26;;;;;;;14.52;3.97;;;25.50;76.90;;;;;;5045052;28;20035;-63
2021/03/09 11:02:37;;;;;;;11.10;3.65;;;25.50;76.90;;;;;;5068170;28;20658;-59
2021/03/09 11:05:29;;;;;;;10.53;3.10;;;25.50;76.90;;;;;;5083538;28;20044;-57
2021/03/09 11:07:56;;;;;;;;;;;25.50;76.80;;;;;;5045813;28;20041;-67
2021/03/09 11:10:24;;;;;;;10.43;3.60;;;25.40;76.80;;;;;;5049160;28;19948;-53
2021/03/09 11:12:51;;;;;;;7.43;3.10;;;25.40;76.80;;;;;;5050337;28;20076;-50
2021/03/09 11:15:20;;;;;;;9.07;3.22;;;25.40;76.70;;;;;;5049318;28;20123;-63
2021/03/09 11:17:47;;;;;;;7.57;3.25;;;25.40;76.50;;;;;;5045798;28;20021;-56
2021/03/09 11:20:15;;;;;;;11.02;4.07;;;25.40;76.70;;;;;;5050296;28;20029;-52
2021/03/09 11:22:43;;;;;;;10.55;3.30;;;25.40;76.70;;;;;;5049823;28;20029;-60
2021/03/09 11:25:11;;;;;;;8.65;3.15;;;25.40;76.80;;;;;;5050011;28;20079;-53
2021/03/09 11:27:38;;;;;;;9.65;3.13;;;25.40;76.70;;;;;;5044782;28;20041;-54
2021/03/09 11:30:07;;;;;;;11.38;3.65;;;25.30;76.70;;;;;;5049990;28;20120;-69
2021/03/09 11:32:34;;;;;;;11.18;3.15;;;25.30;76.70;;;;;;5052290;28;20021;-55
2021/03/09 11:35:01;;;;;;;6.70;3.08;;;25.30;76.70;;;;;;5052369;28;20027;-54
2021/03/09 11:37:29;;;;;;;9.00;2.90;;;25.20;76.60;;;;;;5052322;28;20025;-54
2021/03/09 11:39:56;;;;;;;6.88;2.85;;;25.20;76.80;;;;;;5052027;28;20025;-60
2021/03/09 11:42:23;;;;;;;10.13;3.15;;;25.20;76.80;;;;;;5052237;28;20105;-63
2021/03/09 11:44:51;;;;;;;7.05;3.25;;;25.20;76.80;;;;;;5051347;28;20029;-64
2021/03/09 11:47:18;;;;;;;11.25;3.38;;;25.20;76.80;;;;;;5052070;28;20029;-67
2021/03/09 11:49:45;;;;;;;9.98;3.00;;;25.20;76.90;;;;;;5051903;28;20068;-66
2021/03/09 11:52:13;;;;;;;11.70;3.50;;;25.20;76.90;;;;;;5051991;28;20544;-54
2021/03/09 11:54:42;;;;;;;8.00;3.03;;;25.20;76.90;;;;;;5050282;28;20044;-69
2021/03/09 11:57:09;;;;;;;8.85;3.28;;;25.10;76.80;;;;;;5051886;28;20422;-53
2021/03/09 11:59:37;;;;;;;6.53;3.03;;;25.10;76.90;;;;;;5052134;28;20029;-58
2021/03/09 12:02:04;;;;;;;10.60;3.78;;;25.10;76.80;;;;;;5051919;28;20079;-65
2021/03/09 12:04:31;;;;;;;9.00;3.63;;;25.10;76.90;;;;;;5057415;28;20048;-64
2021/03/09 12:06:59;;;;;;;7.25;2.83;;;25.10;77.00;;;;;;5071417;28;20025;-56
2021/03/09 12:09:26;;;;;;;6.32;3.03;;;25.00;77.00;;;;;;5071805;28;20077;-51
2021/03/09 12:11:53;;;;;;;7.55;2.72;;;25.00;77.00;;;;;;5071697;28;20037;-50
2021/03/09 12:14:21;;;;;;;7.10;3.00;;;25.00;77.00;;;;;;5071915;28;20052;-49
2021/03/09 12:16:48;;;;;;;8.38;2.88;;;25.00;77.00;;;;;;5071820;28;20339;-55
2021/03/09 12:19:15;;;;;;;9.88;3.28;;;25.00;77.20;;;;;;5071967;28;20024;-50
2021/03/09 12:21:43;;;;;;;7.82;2.80;;;25.00;77.20;;;;;;5072073;28;20040;-51
2021/03/09 12:24:10;;;;;;;4.93;2.03;;;25.00;77.00;;;;;;5071691;28;20024;-51
2021/03/09 12:26:38;;;;;;;8.75;3.40;;;24.90;76.90;;;;;;5063746;28;20051;-56
2021/03/09 12:29:05;;;;;;;10.95;2.65;;;24.90;77.00;;;;;;5068601;28;20426;-52
2021/03/09 12:31:32;;;;;;;7.90;2.58;;;24.90;77.10;;;;;;5067978;28;20040;-51
2021/03/09 12:34:00;;;;;;;7.22;2.95;;;24.90;77.30;;;;;;5068734;28;20043;-57
2021/03/09 12:36:27;;;;;;;7.60;2.58;;;24.90;77.60;;;;;;5068661;28;20441;-66
2021/03/09 12:38:55;;;;;;;8.50;3.05;;;24.90;77.30;;;;;;5068149;28;20113;-62
2021/03/09 12:41:22;;;;;;;6.93;2.72;;;24.90;77.20;;;;;;5065481;28;20021;-57
2021/03/09 12:43:49;;;;;;;7.05;2.70;;;24.90;77.10;;;;;;5065835;28;20031;-57
2021/03/09 12:46:17;;;;;;;10.02;3.58;;;24.90;77.00;;;;;;5067956;28;20032;-56
2021/03/09 12:48:44;;;;;;;11.48;3.63;;;24.90;77.10;;;;;;5068669;28;20149;-64
2021/03/09 12:51:12;;;;;;;9.43;2.40;;;24.80;77.40;;;;;;5065580;28;20043;-60
2021/03/09 12:53:39;;;;;;;6.82;2.33;;;24.90;77.40;;;;;;5069554;28;20028;-58
2021/03/09 12:56:07;;;;;;;7.43;2.65;;;24.80;77.40;;;;;;5068012;28;20020;-55
2021/03/09 12:58:35;;;;;;;12.07;3.15;;;24.80;77.20;;;;;;5067576;28;20031;-63
2021/03/09 13:01:02;;;;;;;9.93;2.78;;;24.80;77.20;;;;;;5065221;28;20033;-57
2021/03/09 13:03:30;;;;;;;12.40;3.22;;;24.80;77.20;;;;;;5065796;28;20475;-58
2021/03/09 13:05:58;;;;;;;7.47;2.78;;;24.80;77.10;;;;;;5068563;28;20049;-57
2021/03/09 13:08:25;;;;;;;8.15;3.22;;;24.80;77.10;;;;;;5071127;28;20146;-58